Aérodrome :
LOGIN :

S'inscrire | Disclaimer

   EN    FR    IT 

 










Légende :    VFR   VFR Marginal   IFR   IFR Intensif   IFR Très Intensif
Visi : 
Plafond : 
>= 8 km
>= 3000ft
5 à 8 km
1000 à 3000 ft
1500m à 5 km
500 à 1000 ft
800 à 1500m
200 à 500 ft
< 800m
< 200 ft
Symboles :   Orages  Brouillard  Fortes neiges  Fortes précipitations  Vent > 20 kt
SIGMETs :   Divers  Orages  Givrage  Turbulence  Onde Orograph.  Cendres Volcan.







- Altitude de l'aérodrome : 479 ft
- Code IATA : DOL
- Voir les cartes d'approche


LFRG - Deauville

DERNIER METAR :
  • 210800Z AUTO 26006KT 210V310 9999 BKN012 BKN019 BKN026 18/14 Q1023 BECMG SCT020

METARs EXPIRÉS :
  • 210730Z AUTO 27007KT 230V300 9999 FEW009 17/15 Q1022 NOSIG
  • 210700Z AUTO 25007KT 9999 BKN009 BKN013 16/14 Q1022 TEMPO 3000 BR BECMG SCT020
  • 210630Z AUTO 25006KT 9999 BKN010 BKN015 16/14 Q1022 TEMPO 3000 BR BECMG SCT020
  • 210600Z AUTO 21006KT 9999 OVC009 14/13 Q1022 TEMPO 3000 BR BKN010
  • 210530Z AUTO 22005KT 9999 BKN008 14/13 Q1021 TEMPO 3000 BR BKN010

TAF TAF LFRG
Valide du 21 à 06h jusqu'au 21 à 15h UTC


210500Z 2106/2115 23005KT 9999 SCT020
PROB30
TEMPO 2106/2108 3000 BR BKN010
ATIS : +33 2 31 65 65 36
Pas de NOTAMs connus pour ce terrain.



MET'MAP, la Météo Aéronautique d'un coup d'oeil ! - Copyright ORBIFLY Décembre 2007 - Disclaimer

ORBIFLY MET'MAP TEAM :

Programmation & Développement : Alexandra Zaïnal
Conception & Développement : Baudouin d'Aumeries
Co-Programmation & Développement : Marc-Olivier Méhu
Soutien technique & logistique : Manuel Goepfert

Contact : metmap@orbifly.com




SOURCES & CREDITS :

   NOAA